createdAt,value
2019-02-19T00:02:19.645Z,0.60
2019-02-19T00:04:46.921Z,0.60
2019-02-19T00:07:14.193Z,0.50
2019-02-19T00:09:41.587Z,0.70
2019-02-19T00:12:08.938Z,0.70
2019-02-19T00:14:36.197Z,0.90
2019-02-19T00:17:03.451Z,1.00
2019-02-19T00:19:30.818Z,1.10
2019-02-19T00:21:58.090Z,1.20
2019-02-19T00:24:25.440Z,1.20
2019-02-19T00:26:52.885Z,1.10
2019-02-19T00:29:20.174Z,1.20
2019-02-19T00:31:47.433Z,1.20
2019-02-19T00:34:14.869Z,1.30
2019-02-19T00:36:42.109Z,1.40
2019-02-19T00:39:09.336Z,1.50
2019-02-19T00:41:36.582Z,1.40
2019-02-19T00:44:03.951Z,1.50
2019-02-19T00:46:31.190Z,1.40
2019-02-19T00:48:58.701Z,1.50
2019-02-19T00:51:26.069Z,1.50
2019-02-19T00:53:53.306Z,1.50
2019-02-19T00:56:21.264Z,1.20
2019-02-19T00:58:48.628Z,1.20
2019-02-19T01:01:15.881Z,1.30
2019-02-19T01:03:43.286Z,1.30
2019-02-19T01:06:10.621Z,1.40
2019-02-19T01:08:38.030Z,1.70
2019-02-19T01:11:05.386Z,1.80
2019-02-19T01:13:32.773Z,1.80
2019-02-19T01:16:00.061Z,1.90
2019-02-19T01:18:27.301Z,1.80
2019-02-19T01:20:54.554Z,1.90
2019-02-19T01:23:21.941Z,1.90
2019-02-19T01:25:49.305Z,2.00
2019-02-19T01:28:16.656Z,2.00
2019-02-19T01:30:44.119Z,2.00
2019-02-19T01:33:11.482Z,1.90
2019-02-19T01:35:38.756Z,2.00
2019-02-19T01:38:06.007Z,2.00
2019-02-19T01:40:33.337Z,2.00
2019-02-19T01:43:00.770Z,2.00
2019-02-19T01:45:33.882Z,1.80
2019-02-19T01:47:57.501Z,1.70
2019-02-19T01:50:24.810Z,1.70
2019-02-19T01:52:52.088Z,1.60
2019-02-19T01:55:19.490Z,1.50
2019-02-19T01:57:46.803Z,1.20
2019-02-19T02:00:14.357Z,1.30
2019-02-19T02:02:41.779Z,1.40
2019-02-19T02:05:09.201Z,1.50
2019-02-19T02:07:36.502Z,1.50
2019-02-19T02:10:04.302Z,1.60
2019-02-19T02:12:31.589Z,1.50
2019-02-19T02:15:00.282Z,1.40
2019-02-19T02:17:27.626Z,1.40
2019-02-19T02:19:55.898Z,1.50
2019-02-19T02:22:23.158Z,1.50
2019-02-19T02:24:50.714Z,1.40
2019-02-19T02:27:18.213Z,1.40
2019-02-19T02:29:45.440Z,1.40
2019-02-19T02:32:12.713Z,1.40
2019-02-19T02:34:40.128Z,1.30
2019-02-19T02:37:07.499Z,1.10
2019-02-19T02:39:34.937Z,1.10
2019-02-19T02:42:02.298Z,1.00
2019-02-19T02:44:29.577Z,1.20
2019-02-19T02:46:57.004Z,1.30
2019-02-19T02:49:24.255Z,1.30
2019-02-19T02:51:51.513Z,1.20
2019-02-19T02:54:18.784Z,1.00
2019-02-19T02:56:46.050Z,0.90
2019-02-19T02:59:13.286Z,1.10
2019-02-19T03:01:40.573Z,1.20
2019-02-19T03:04:08.062Z,1.30
2019-02-19T03:06:43.098Z,1.30
2019-02-19T03:09:10.375Z,1.00
2019-02-19T03:11:37.628Z,1.00
2019-02-19T03:14:05.002Z,1.10
2019-02-19T03:16:32.562Z,1.00
2019-02-19T03:18:59.814Z,1.00
2019-02-19T03:21:27.245Z,0.90
2019-02-19T03:23:54.558Z,0.80
2019-02-19T03:26:21.811Z,0.80
2019-02-19T03:28:49.255Z,0.80
2019-02-19T03:31:16.628Z,1.00
2019-02-19T03:33:44.097Z,1.00
2019-02-19T03:36:11.470Z,0.90
2019-02-19T03:38:38.726Z,0.90
2019-02-19T03:41:06.112Z,0.80
2019-02-19T03:43:33.921Z,0.70
2019-02-19T03:46:01.174Z,0.70
2019-02-19T03:48:28.447Z,0.80
2019-02-19T03:50:58.638Z,0.90
2019-02-19T03:53:26.124Z,1.00
2019-02-19T03:55:53.687Z,1.10
2019-02-19T03:58:20.924Z,1.00
2019-02-19T04:00:48.278Z,1.00
2019-02-19T04:03:15.642Z,1.00
2019-02-19T04:05:43.104Z,0.90
2019-02-19T04:08:10.754Z,1.10
2019-02-19T04:10:40.083Z,1.20
2019-02-19T04:13:07.492Z,1.10
2019-02-19T04:15:35.102Z,1.10
2019-02-19T04:18:02.502Z,0.80
2019-02-19T04:20:29.890Z,0.80
2019-02-19T04:22:57.403Z,0.90
2019-02-19T04:25:24.730Z,0.90
2019-02-19T04:27:52.259Z,0.90
2019-02-19T04:30:19.531Z,0.80
2019-02-19T04:32:46.759Z,1.00
2019-02-19T04:35:14.121Z,1.00
2019-02-19T04:37:41.470Z,0.80
2019-02-19T04:40:08.739Z,0.90
2019-02-19T04:42:36.049Z,1.00
2019-02-19T04:45:03.370Z,0.80
2019-02-19T04:47:30.755Z,0.80
2019-02-19T04:49:58.174Z,0.90
2019-02-19T04:52:25.490Z,0.80
2019-02-19T04:54:52.745Z,0.70
2019-02-19T04:57:20.824Z,0.60
2019-02-19T04:59:48.142Z,0.60
2019-02-19T05:02:15.507Z,0.70
2019-02-19T05:04:43.069Z,0.40
2019-02-19T05:07:10.376Z,0.50
2019-02-19T05:09:37.794Z,0.50
2019-02-19T05:12:05.314Z,0.50
2019-02-19T05:14:32.598Z,0.60
2019-02-19T05:16:59.854Z,0.70
2019-02-19T05:19:27.307Z,0.50
2019-02-19T05:21:54.910Z,0.50
2019-02-19T05:24:22.438Z,0.30
2019-02-19T05:26:49.858Z,0.20
2019-02-19T05:29:17.120Z,0.10
2019-02-19T05:31:44.654Z,0.20
2019-02-19T05:34:12.029Z,0.10
2019-02-19T05:36:39.274Z,0.30
2019-02-19T05:39:06.521Z,0.10
2019-02-19T05:41:33.906Z,0.10
2019-02-19T05:44:01.199Z,0.20
2019-02-19T05:46:28.519Z,0.20
2019-02-19T05:48:55.989Z,0.30
2019-02-19T05:51:23.267Z,0.30
2019-02-19T05:53:50.526Z,0.30
2019-02-19T05:56:17.932Z,0.40
2019-02-19T05:58:45.254Z,0.60
2019-02-19T06:01:12.466Z,0.50
2019-02-19T06:03:39.865Z,0.60
2019-02-19T06:06:07.294Z,0.60
2019-02-19T06:08:34.601Z,0.50
2019-02-19T06:11:02.003Z,0.40
2019-02-19T06:13:29.374Z,0.60
2019-02-19T06:15:56.682Z,0.60
2019-02-19T06:18:23.939Z,0.40
2019-02-19T06:20:51.198Z,0.50
2019-02-19T06:23:18.546Z,0.50
2019-02-19T06:25:45.903Z,0.60
2019-02-19T06:28:13.138Z,0.50
2019-02-19T06:30:40.382Z,0.60
2019-02-19T06:33:07.665Z,0.50
2019-02-19T06:35:35.062Z,0.60
2019-02-19T06:38:02.307Z,0.70
2019-02-19T06:40:29.657Z,0.70
2019-02-19T06:42:57.073Z,0.60
2019-02-19T06:45:24.388Z,0.80
2019-02-19T06:47:51.648Z,0.90
2019-02-19T06:50:19.258Z,0.90
2019-02-19T06:52:46.535Z,0.80
2019-02-19T06:55:13.924Z,0.80
2019-02-19T06:57:41.305Z,0.80
2019-02-19T07:00:09.082Z,0.90
2019-02-19T07:02:42.438Z,0.80
2019-02-19T07:05:15.456Z,0.50
2019-02-19T07:07:42.770Z,0.50
2019-02-19T07:10:10.423Z,0.60
2019-02-19T07:12:37.859Z,0.60
2019-02-19T07:15:05.653Z,0.60
2019-02-19T07:17:33.031Z,0.60
2019-02-19T07:20:00.372Z,0.60
2019-02-19T07:22:27.612Z,0.60
2019-02-19T07:24:54.977Z,0.70
2019-02-19T07:27:22.442Z,0.70
2019-02-19T07:29:49.962Z,0.80
2019-02-19T07:32:17.326Z,0.70
2019-02-19T07:34:44.654Z,0.70
2019-02-19T07:37:11.902Z,0.70
2019-02-19T07:39:39.199Z,0.70
2019-02-19T07:42:06.688Z,0.80
2019-02-19T07:44:34.054Z,1.10
2019-02-19T07:47:01.321Z,1.00
2019-02-19T07:49:28.594Z,1.00
2019-02-19T07:51:56.034Z,1.10
2019-02-19T07:54:23.490Z,1.20
2019-02-19T07:56:50.878Z,1.20
2019-02-19T07:59:18.333Z,1.20
2019-02-19T08:01:45.713Z,1.30
2019-02-19T08:04:13.076Z,1.50
2019-02-19T08:06:40.475Z,1.90
2019-02-19T08:09:10.812Z,2.10
2019-02-19T08:11:38.101Z,2.20
2019-02-19T08:14:05.343Z,2.50
2019-02-19T08:16:32.731Z,2.60
2019-02-19T08:18:59.992Z,2.90
2019-02-19T08:21:27.321Z,3.10
2019-02-19T08:23:54.676Z,3.30
2019-02-19T08:26:22.094Z,3.60
2019-02-19T08:28:49.390Z,4.10
2019-02-19T08:31:16.729Z,4.40
2019-02-19T08:33:44.170Z,4.50
2019-02-19T08:36:11.409Z,4.50
2019-02-19T08:38:38.733Z,4.30
2019-02-19T08:41:06.098Z,4.60
2019-02-19T08:43:33.333Z,4.70
2019-02-19T08:46:00.650Z,5.00
2019-02-19T08:48:27.911Z,4.90
2019-02-19T08:50:55.289Z,5.20
2019-02-19T08:53:22.553Z,5.60
2019-02-19T08:55:49.792Z,5.60
2019-02-19T08:58:17.421Z,5.70
2019-02-19T09:00:44.774Z,5.80
2019-02-19T09:03:12.206Z,6.00
2019-02-19T09:05:39.614Z,6.20
2019-02-19T09:08:07.023Z,6.40
2019-02-19T09:10:34.273Z,6.40
2019-02-19T09:13:01.543Z,6.60
2019-02-19T09:15:28.951Z,6.90
2019-02-19T09:17:56.353Z,7.20
2019-02-19T09:20:23.858Z,7.70
2019-02-19T09:22:51.282Z,8.10
2019-02-19T09:25:18.503Z,8.70
2019-02-19T09:27:45.733Z,8.80
2019-02-19T09:30:12.962Z,9.10
2019-02-19T09:32:40.331Z,9.30
2019-02-19T09:35:08.195Z,9.70
2019-02-19T09:37:35.664Z,9.70
2019-02-19T09:40:03.883Z,9.60
2019-02-19T09:42:31.166Z,9.80
2019-02-19T09:44:58.429Z,9.90
2019-02-19T09:47:25.726Z,10.10
2019-02-19T09:49:53.059Z,10.30
2019-02-19T09:52:20.474Z,10.20
2019-02-19T09:54:47.926Z,10.60
2019-02-19T09:57:15.202Z,10.60
2019-02-19T09:59:42.585Z,10.80
2019-02-19T10:02:10.130Z,11.10
2019-02-19T10:04:37.569Z,11.20
2019-02-19T10:07:04.876Z,11.40
2019-02-19T10:09:32.281Z,11.50
2019-02-19T10:11:59.661Z,11.30
2019-02-19T10:14:26.898Z,10.80
2019-02-19T10:16:54.230Z,11.20
2019-02-19T10:19:21.569Z,11.30
2019-02-19T10:21:48.837Z,11.50
2019-02-19T10:24:16.093Z,11.50
2019-02-19T10:26:43.347Z,11.50
2019-02-19T10:29:10.586Z,11.50
2019-02-19T10:31:37.865Z,11.70
2019-02-19T10:34:05.133Z,11.80
2019-02-19T10:36:32.494Z,12.00
2019-02-19T10:38:59.719Z,12.10
2019-02-19T10:41:26.982Z,12.40
2019-02-19T10:43:54.373Z,12.50
2019-02-19T10:46:21.912Z,12.70
2019-02-19T10:48:49.320Z,12.60
2019-02-19T10:51:16.609Z,12.60
2019-02-19T10:53:43.834Z,12.70
2019-02-19T10:56:11.074Z,13.00
2019-02-19T10:58:38.475Z,12.90
2019-02-19T11:01:05.763Z,13.40
2019-02-19T11:03:32.995Z,13.50
2019-02-19T11:06:00.481Z,13.70
2019-02-19T11:08:27.819Z,14.00
2019-02-19T11:10:55.262Z,13.90
2019-02-19T11:13:22.666Z,13.80
2019-02-19T11:15:49.910Z,14.30
2019-02-19T11:18:17.174Z,14.70
2019-02-19T11:20:44.502Z,14.70
2019-02-19T11:23:11.754Z,14.50
2019-02-19T11:25:39.038Z,14.50
2019-02-19T11:28:06.383Z,14.80
2019-02-19T11:30:33.727Z,14.90
2019-02-19T11:33:01.104Z,15.30
2019-02-19T11:35:28.503Z,15.20
2019-02-19T11:37:55.778Z,15.40
2019-02-19T11:40:23.081Z,15.40
2019-02-19T11:42:50.561Z,15.50
2019-02-19T11:45:18.059Z,15.10
2019-02-19T11:47:45.405Z,14.80
2019-02-19T11:50:13.080Z,14.60
2019-02-19T11:52:40.482Z,14.10
2019-02-19T11:55:09.314Z,13.90
2019-02-19T11:57:36.771Z,13.90
2019-02-19T12:00:06.129Z,13.90
2019-02-19T12:02:33.503Z,13.80
2019-02-19T12:05:00.743Z,13.80
2019-02-19T12:07:28.114Z,13.60
2019-02-19T12:09:55.436Z,13.60
2019-02-19T12:12:22.806Z,13.60
2019-02-19T12:14:50.105Z,13.60
2019-02-19T12:17:17.428Z,13.80
2019-02-19T12:19:44.879Z,13.80
2019-02-19T12:22:12.258Z,13.90
2019-02-19T12:24:39.677Z,13.80
2019-02-19T12:27:08.856Z,13.90
2019-02-19T12:29:36.481Z,13.80
2019-02-19T12:32:03.762Z,13.80
2019-02-19T12:34:31.027Z,13.80
2019-02-19T12:36:58.514Z,13.90
2019-02-19T12:39:25.757Z,14.00
2019-02-19T12:41:53.077Z,14.00
2019-02-19T12:44:20.345Z,13.80
2019-02-19T12:46:47.605Z,13.60
2019-02-19T12:49:16.444Z,13.70
2019-02-19T12:51:44.106Z,13.70
2019-02-19T12:54:11.518Z,13.80
2019-02-19T12:56:38.762Z,13.70
2019-02-19T12:59:06.122Z,13.70
2019-02-19T13:01:33.383Z,13.50
2019-02-19T13:04:00.726Z,13.40
2019-02-19T13:06:28.073Z,13.20
2019-02-19T13:08:55.342Z,13.30
2019-02-19T13:11:22.626Z,13.10
2019-02-19T13:13:49.862Z,13.30
2019-02-19T13:16:17.268Z,13.60
2019-02-19T13:18:44.653Z,13.70
2019-02-19T13:21:11.911Z,13.40
2019-02-19T13:23:39.233Z,13.60
2019-02-19T13:26:06.480Z,13.70
2019-02-19T13:28:33.762Z,13.90
2019-02-19T13:31:01.269Z,13.70
2019-02-19T13:33:28.614Z,13.70
2019-02-19T13:35:55.855Z,13.60
2019-02-19T13:38:23.102Z,13.50
2019-02-19T13:40:50.438Z,13.50
2019-02-19T13:43:18.479Z,13.80
2019-02-19T13:45:46.229Z,13.80
2019-02-19T13:48:13.638Z,13.80
2019-02-19T13:50:40.983Z,13.80
2019-02-19T13:53:22.075Z,13.90
2019-02-19T13:55:52.263Z,13.90
2019-02-19T13:58:19.529Z,13.70
2019-02-19T14:00:47.592Z,13.80
2019-02-19T14:03:14.984Z,13.80
2019-02-19T14:05:44.006Z,13.80
2019-02-19T14:08:14.521Z,13.60
2019-02-19T14:10:40.529Z,13.40
2019-02-19T14:13:07.793Z,13.40
2019-02-19T14:15:53.192Z,13.30
2019-02-19T14:18:26.658Z,13.50
2019-02-19T14:21:18.117Z,13.60
2019-02-19T14:24:09.944Z,13.70
2019-02-19T14:26:56.805Z,13.80
2019-02-19T14:29:52.557Z,13.60
2019-02-19T14:32:39.081Z,13.40
2019-02-19T14:35:41.278Z,13.40
2019-02-19T14:38:27.045Z,13.30
2019-02-19T14:41:07.689Z,13.40
2019-02-19T14:43:54.598Z,13.40
2019-02-19T14:46:37.245Z,13.50
2019-02-19T14:49:37.326Z,13.40
2019-02-19T14:52:21.132Z,13.40
2019-02-19T14:55:06.294Z,13.40
2019-02-19T14:57:51.549Z,13.40
2019-02-19T15:00:46.326Z,13.50
2019-02-19T15:03:33.191Z,13.50
2019-02-19T15:06:13.723Z,13.40
2019-02-19T15:09:18.773Z,13.50
2019-02-19T15:11:59.222Z,13.40
2019-02-19T15:14:44.827Z,13.40
2019-02-19T15:17:40.714Z,13.40
2019-02-19T15:20:39.702Z,13.20
2019-02-19T15:23:34.362Z,13.30
2019-02-19T15:26:18.658Z,13.10
2019-02-19T15:29:11.123Z,13.10
2019-02-19T15:32:12.979Z,12.90
2019-02-19T15:35:08.681Z,12.70
2019-02-19T15:37:49.738Z,12.60
2019-02-19T15:40:28.205Z,12.50
2019-02-19T15:43:24.367Z,12.40
2019-02-19T15:46:16.966Z,12.10
2019-02-19T15:49:18.980Z,11.90
2019-02-19T15:52:04.714Z,11.70
2019-02-19T15:54:55.294Z,11.60
2019-02-19T15:58:04.542Z,11.50
2019-02-19T16:01:04.915Z,11.40
2019-02-19T16:03:48.318Z,11.20
2019-02-19T16:06:21.185Z,11.10
2019-02-19T16:09:11.458Z,10.90
2019-02-19T16:11:52.540Z,10.80
2019-02-19T16:14:45.222Z,10.60
2019-02-19T16:17:34.893Z,10.50
2019-02-19T16:20:15.022Z,10.30
2019-02-19T16:23:01.955Z,10.40
2019-02-19T16:25:44.330Z,10.50
2019-02-19T16:28:25.815Z,10.40
2019-02-19T16:31:02.430Z,10.30
2019-02-19T16:33:52.150Z,10.20
2019-02-19T16:36:36.216Z,10.30
2019-02-19T16:39:27.206Z,10.00
2019-02-19T16:42:12.706Z,9.70
2019-02-19T16:45:17.033Z,9.80
2019-02-19T16:48:12.774Z,9.70
2019-02-19T16:51:02.465Z,9.50
2019-02-19T16:54:07.487Z,9.40
2019-02-19T16:56:50.462Z,9.40
2019-02-19T16:59:37.714Z,9.30
2019-02-19T17:02:19.286Z,9.30
2019-02-19T17:05:11.802Z,9.40
2019-02-19T17:07:44.594Z,9.30
2019-02-19T17:10:19.057Z,9.20
2019-02-19T17:13:04.082Z,9.20
2019-02-19T17:16:00.063Z,9.20
2019-02-19T17:18:33.816Z,9.20
2019-02-19T17:21:23.467Z,9.20
2019-02-19T17:24:08.985Z,9.10
2019-02-19T17:27:10.689Z,9.20
2019-02-19T17:29:55.980Z,9.20
2019-02-19T17:32:38.026Z,9.00
2019-02-19T17:35:21.390Z,8.80
2019-02-19T17:38:23.703Z,8.50
2019-02-19T17:41:13.290Z,8.40
2019-02-19T17:44:00.198Z,8.10
2019-02-19T17:46:47.130Z,8.10
2019-02-19T17:49:25.428Z,8.30
2019-02-19T17:52:01.182Z,8.30
2019-02-19T17:54:48.205Z,8.40
2019-02-19T17:57:50.337Z,8.40
2019-02-19T18:00:32.487Z,8.50
2019-02-19T18:03:22.302Z,8.20
2019-02-19T18:05:57.934Z,8.30
2019-02-19T18:08:36.254Z,8.30
2019-02-19T18:11:41.378Z,8.40
2019-02-19T18:14:21.678Z,8.40
2019-02-19T18:17:04.831Z,8.30
2019-02-19T18:19:32.270Z,8.30
2019-02-19T18:21:59.622Z,8.30
2019-02-19T18:24:26.871Z,8.40
2019-02-19T18:26:54.150Z,8.40
2019-02-19T18:29:21.504Z,8.30
2019-02-19T18:31:48.951Z,8.50
2019-02-19T18:34:16.394Z,8.60
2019-02-19T18:36:43.637Z,8.70
2019-02-19T18:39:11.007Z,8.60
2019-02-19T18:41:38.270Z,8.80
2019-02-19T18:44:05.706Z,8.70
2019-02-19T18:46:32.971Z,8.60
2019-02-19T18:49:00.336Z,8.70
2019-02-19T18:51:27.594Z,8.60
2019-02-19T18:53:54.858Z,8.50
2019-02-19T18:56:22.090Z,8.40
2019-02-19T18:58:49.332Z,8.40
2019-02-19T19:01:16.579Z,8.30
2019-02-19T19:03:43.829Z,8.20
2019-02-19T19:06:11.448Z,8.20
2019-02-19T19:08:38.740Z,8.10
2019-02-19T19:11:06.085Z,8.10
2019-02-19T19:13:33.447Z,8.10
2019-02-19T19:16:00.723Z,8.10
2019-02-19T19:18:27.977Z,8.00
2019-02-19T19:20:55.316Z,8.10
2019-02-19T19:23:22.586Z,8.30
2019-02-19T19:25:49.979Z,8.30
2019-02-19T19:28:17.260Z,8.30
2019-02-19T19:30:44.650Z,8.30
2019-02-19T19:33:11.950Z,8.40
2019-02-19T19:35:39.226Z,8.50
2019-02-19T19:38:06.478Z,8.50
2019-02-19T19:40:33.687Z,8.50
2019-02-19T19:43:00.985Z,8.50
2019-02-19T19:45:28.424Z,8.60
2019-02-19T19:47:55.802Z,8.60
2019-02-19T19:50:23.062Z,8.50
2019-02-19T19:52:50.326Z,8.60
2019-02-19T19:55:17.554Z,8.60
2019-02-19T19:57:45.315Z,8.70
2019-02-19T20:00:12.657Z,8.60
2019-02-19T20:02:40.110Z,8.60
2019-02-19T20:05:07.506Z,8.60
2019-02-19T20:07:34.759Z,8.70
2019-02-19T20:10:02.118Z,8.80
2019-02-19T20:12:29.478Z,8.80
2019-02-19T20:14:56.793Z,8.60
2019-02-19T20:17:24.154Z,8.70
2019-02-19T20:19:51.660Z,8.80
2019-02-19T20:22:19.049Z,8.90
2019-02-19T20:24:46.271Z,9.00
2019-02-19T20:27:13.514Z,9.00
2019-02-19T20:29:40.767Z,9.10
2019-02-19T20:32:08.086Z,9.10
2019-02-19T20:34:35.359Z,9.00
2019-02-19T20:37:02.635Z,9.00
2019-02-19T20:39:30.033Z,8.80
2019-02-19T20:41:57.661Z,8.60
2019-02-19T20:44:25.012Z,8.50
2019-02-19T20:46:52.275Z,8.50
2019-02-19T20:49:19.566Z,8.40
2019-02-19T20:51:46.809Z,8.30
2019-02-19T20:54:14.187Z,8.20
2019-02-19T20:56:41.499Z,8.30
2019-02-19T20:59:08.846Z,8.30
2019-02-19T21:01:36.242Z,8.20
2019-02-19T21:04:03.653Z,8.10
2019-02-19T21:06:30.884Z,8.20
2019-02-19T21:08:58.126Z,8.30
2019-02-19T21:11:27.561Z,8.30
2019-02-19T21:13:54.776Z,8.30
2019-02-19T21:16:22.083Z,8.30
2019-02-19T21:18:49.384Z,8.30
2019-02-19T21:21:16.647Z,8.20
2019-02-19T21:23:43.864Z,8.00
2019-02-19T21:26:11.110Z,8.10
2019-02-19T21:28:38.464Z,8.10
2019-02-19T21:31:05.742Z,8.10
2019-02-19T21:33:33.016Z,8.10
2019-02-19T21:36:00.304Z,8.00
2019-02-19T21:38:27.579Z,8.00
2019-02-19T21:40:54.826Z,8.00
2019-02-19T21:43:22.182Z,7.90
2019-02-19T21:45:49.522Z,7.90
2019-02-19T21:48:16.786Z,7.90
2019-02-19T21:50:44.029Z,7.90
2019-02-19T21:53:11.313Z,7.90
2019-02-19T21:55:38.701Z,7.90
2019-02-19T21:58:05.954Z,7.70
2019-02-19T22:00:33.174Z,7.70
2019-02-19T22:03:00.662Z,7.70
2019-02-19T22:05:27.933Z,7.80
2019-02-19T22:07:55.411Z,7.70
2019-02-19T22:10:22.794Z,7.60
2019-02-19T22:12:50.167Z,7.60
2019-02-19T22:15:17.381Z,7.60
2019-02-19T22:17:44.644Z,7.40
2019-02-19T22:20:30.153Z,7.40
2019-02-19T22:22:57.510Z,7.30
2019-02-19T22:25:24.948Z,7.10
2019-02-19T22:27:52.226Z,7.00
2019-02-19T22:30:19.454Z,7.00
2019-02-19T22:32:46.790Z,7.00
2019-02-19T22:35:14.234Z,7.00
2019-02-19T22:37:41.670Z,7.00
2019-02-19T22:40:08.925Z,6.90
2019-02-19T22:42:38.565Z,6.80
2019-02-19T22:45:05.978Z,6.90
2019-02-19T22:47:33.245Z,7.00
2019-02-19T22:50:00.614Z,6.90
2019-02-19T22:52:27.879Z,6.90
2019-02-19T22:55:08.318Z,6.90
2019-02-19T22:57:35.629Z,6.90
2019-02-19T23:00:07.027Z,6.80
2019-02-19T23:02:34.408Z,6.90
2019-02-19T23:05:01.760Z,6.80
2019-02-19T23:07:29.159Z,6.80
2019-02-19T23:09:56.544Z,7.00
2019-02-19T23:12:23.813Z,6.90
2019-02-19T23:14:51.050Z,6.80
2019-02-19T23:17:18.315Z,6.80
2019-02-19T23:19:45.536Z,6.70
2019-02-19T23:22:21.182Z,6.70
2019-02-19T23:24:42.059Z,6.70
2019-02-19T23:27:09.326Z,6.60
2019-02-19T23:29:36.570Z,6.50
2019-02-19T23:32:03.835Z,6.50
2019-02-19T23:34:31.082Z,6.50
2019-02-19T23:37:10.169Z,6.40
2019-02-19T23:39:43.428Z,6.30
2019-02-19T23:42:06.614Z,6.20
2019-02-19T23:44:34.025Z,6.20
2019-02-19T23:47:01.363Z,6.10
2019-02-19T23:49:28.602Z,6.00
2019-02-19T23:51:55.957Z,5.90
2019-02-19T23:54:23.297Z,5.80
2019-02-19T23:56:50.566Z,5.70
2019-02-19T23:59:17.838Z,5.70
